createdAt,value
2019-01-08T00:03:22.341Z,62.05
2019-01-08T00:08:19.039Z,61.48
2019-01-08T00:13:11.306Z,61.81
2019-01-08T00:18:03.442Z,61.32
2019-01-08T00:22:55.370Z,61.70
2019-01-08T00:27:47.248Z,62.20
2019-01-08T00:32:39.167Z,62.26
2019-01-08T00:37:31.453Z,61.92
2019-01-08T00:42:23.312Z,61.73
2019-01-08T00:47:17.544Z,61.70
2019-01-08T00:52:11.423Z,62.67
2019-01-08T00:57:02.599Z,61.60
2019-01-08T01:01:55.205Z,62.12
2019-01-08T01:07:10.215Z,61.50
2019-01-08T01:12:01.860Z,62.58
2019-01-08T01:16:54.038Z,62.94
2019-01-08T01:21:45.223Z,61.95
2019-01-08T01:26:39.183Z,62.63
2019-01-08T01:31:30.635Z,61.65
2019-01-08T01:36:21.950Z,62.27
2019-01-08T01:41:14.382Z,61.92
2019-01-08T01:46:06.799Z,61.70
2019-01-08T01:50:57.463Z,61.68
2019-01-08T01:55:48.817Z,61.58
2019-01-08T02:00:42.824Z,62.33
2019-01-08T02:05:36.675Z,61.98
2019-01-08T02:10:29.609Z,62.05
2019-01-08T02:15:40.385Z,61.56
2019-01-08T02:20:31.906Z,61.65
2019-01-08T02:25:24.426Z,61.66
2019-01-08T02:30:16.243Z,62.01
2019-01-08T02:35:09.148Z,61.10
2019-01-08T02:40:03.257Z,61.19
2019-01-08T02:44:55.000Z,61.28
2019-01-08T02:49:46.168Z,61.17
2019-01-08T02:54:39.055Z,61.18
2019-01-08T02:59:29.917Z,60.92
2019-01-08T03:04:21.386Z,61.07
2019-01-08T03:09:14.187Z,61.94
2019-01-08T03:14:06.194Z,61.46
2019-01-08T03:19:01.597Z,62.05
2019-01-08T03:23:54.738Z,61.13
2019-01-08T03:28:47.880Z,61.04
2019-01-08T03:33:39.397Z,61.04
2019-01-08T03:38:33.439Z,61.18
2019-01-08T03:43:26.781Z,61.25
2019-01-08T03:48:18.024Z,61.34
2019-01-08T03:53:10.636Z,61.82
2019-01-08T03:58:01.212Z,61.58
2019-01-08T04:03:18.671Z,62.21
2019-01-08T04:08:14.079Z,62.27
2019-01-08T04:13:21.792Z,61.73
2019-01-08T04:18:12.849Z,62.18
2019-01-08T04:23:04.197Z,61.32
2019-01-08T04:27:57.120Z,61.51
2019-01-08T04:32:50.272Z,61.51
2019-01-08T04:37:41.255Z,62.22
2019-01-08T04:42:34.012Z,62.45
2019-01-08T04:47:25.691Z,62.09
2019-01-08T04:52:16.437Z,62.52
2019-01-08T04:57:07.372Z,63.20
2019-01-08T05:01:58.770Z,63.03
2019-01-08T05:06:49.813Z,62.79
2019-01-08T05:11:41.992Z,63.20
2019-01-08T05:16:33.712Z,64.44
2019-01-08T05:21:27.533Z,63.18
2019-01-08T05:26:24.280Z,63.12
2019-01-08T05:31:14.602Z,64.09
2019-01-08T05:36:10.378Z,63.65
2019-01-08T05:41:02.108Z,64.05
2019-01-08T05:45:54.434Z,64.23
2019-01-08T05:50:47.279Z,64.77
2019-01-08T05:55:41.776Z,64.63
2019-01-08T06:00:33.083Z,65.60
2019-01-08T06:05:24.438Z,65.00
2019-01-08T06:10:16.517Z,63.87
2019-01-08T06:15:07.166Z,63.11
2019-01-08T06:19:57.939Z,62.84
2019-01-08T06:24:50.244Z,62.90
2019-01-08T06:29:43.349Z,62.88
2019-01-08T06:34:34.223Z,62.86
2019-01-08T06:39:25.563Z,62.81
2019-01-08T06:44:18.925Z,62.66
2019-01-08T06:49:12.158Z,62.55
2019-01-08T06:54:05.175Z,62.18
2019-01-08T06:58:56.945Z,63.56
2019-01-08T07:03:48.064Z,61.89
2019-01-08T07:08:41.303Z,61.89
2019-01-08T07:13:32.249Z,62.28
2019-01-08T07:18:23.571Z,61.88
2019-01-08T07:23:16.463Z,62.48
2019-01-08T07:28:07.494Z,61.99
2019-01-08T07:32:59.130Z,60.82
2019-01-08T07:37:52.127Z,59.84
2019-01-08T07:42:42.793Z,59.31
2019-01-08T07:47:33.659Z,59.58
2019-01-08T07:52:32.132Z,59.45
2019-01-08T07:57:23.950Z,60.01
2019-01-08T08:02:17.139Z,59.14
2019-01-08T08:07:07.480Z,59.71
2019-01-08T08:11:58.729Z,60.03
2019-01-08T08:16:51.809Z,59.85
2019-01-08T08:21:45.404Z,59.68
2019-01-08T08:26:37.977Z,59.41
2019-01-08T08:31:31.486Z,58.99
2019-01-08T08:36:21.789Z,58.17
2019-01-08T08:41:12.913Z,59.21
2019-01-08T08:46:05.566Z,59.55
2019-01-08T08:50:56.579Z,59.53
2019-01-08T08:55:48.091Z,58.61
2019-01-08T09:00:44.671Z,57.42
2019-01-08T09:05:35.149Z,56.79
2019-01-08T09:10:28.775Z,56.59
2019-01-08T09:15:49.112Z,56.83
2019-01-08T09:21:06.177Z,55.48
2019-01-08T09:26:21.952Z,53.89
2019-01-08T09:31:40.834Z,53.02
2019-01-08T09:37:04.314Z,52.35
2019-01-08T09:42:26.116Z,51.43
2019-01-08T09:47:48.680Z,52.09
2019-01-08T09:53:06.142Z,51.21
2019-01-08T09:58:23.797Z,51.43
2019-01-08T10:03:41.766Z,50.78
2019-01-08T10:09:00.634Z,50.84
2019-01-08T10:14:20.256Z,50.50
2019-01-08T10:19:35.868Z,50.35
2019-01-08T10:24:51.596Z,50.36
2019-01-08T10:30:04.719Z,48.69
2019-01-08T10:35:21.056Z,47.44
2019-01-08T10:40:14.518Z,47.44
2019-01-08T10:45:27.140Z,48.34
2019-01-08T10:50:20.024Z,48.59
2019-01-08T10:55:13.422Z,48.04
2019-01-08T11:00:04.445Z,48.04
2019-01-08T11:04:57.329Z,48.16
2019-01-08T11:09:51.089Z,49.02
2019-01-08T11:14:41.258Z,47.53
2019-01-08T11:19:34.402Z,46.88
2019-01-08T11:24:27.355Z,46.92
2019-01-08T11:29:18.842Z,46.35
2019-01-08T11:34:10.168Z,46.35
2019-01-08T11:39:03.290Z,47.71
2019-01-08T11:43:54.869Z,47.66
2019-01-08T11:48:45.683Z,48.62
2019-01-08T11:53:38.009Z,47.47
2019-01-08T11:58:32.258Z,47.10
2019-01-08T12:03:24.580Z,46.16
2019-01-08T12:08:15.633Z,44.96
2019-01-08T12:13:06.613Z,45.54
2019-01-08T12:17:57.005Z,45.98
2019-01-08T12:22:49.127Z,45.68
2019-01-08T12:27:40.177Z,46.23
2019-01-08T12:32:33.127Z,46.65
2019-01-08T12:37:24.641Z,45.36
2019-01-08T12:42:17.265Z,47.20
2019-01-08T12:47:07.372Z,46.75
2019-01-08T12:51:58.459Z,46.68
2019-01-08T12:56:49.730Z,46.68
2019-01-08T13:01:41.058Z,46.11
2019-01-08T13:06:31.841Z,46.26
2019-01-08T13:11:25.142Z,46.26
2019-01-08T13:16:19.143Z,45.26
2019-01-08T13:21:12.264Z,45.32
2019-01-08T13:26:03.002Z,44.99
2019-01-08T13:30:53.094Z,45.35
2019-01-08T13:35:43.740Z,46.83
2019-01-08T13:40:34.488Z,46.83
2019-01-08T13:45:27.134Z,47.39
2019-01-08T13:50:17.420Z,47.24
2019-01-08T13:55:11.987Z,48.10
2019-01-08T14:00:05.413Z,47.89
2019-01-08T14:04:58.015Z,48.00
2019-01-08T14:09:49.923Z,46.91
2019-01-08T14:14:41.489Z,46.53
2019-01-08T14:19:31.286Z,47.46
2019-01-08T14:24:21.677Z,48.01
2019-01-08T14:29:13.053Z,47.26
2019-01-08T14:34:04.567Z,48.32
2019-01-08T14:38:55.339Z,49.84
2019-01-08T14:43:45.717Z,50.71
2019-01-08T14:48:39.880Z,50.76
2019-01-08T14:53:31.000Z,51.38
2019-01-08T14:58:22.206Z,51.53
2019-01-08T15:03:14.388Z,52.11
2019-01-08T15:08:05.106Z,51.93
2019-01-08T15:12:56.506Z,51.88
2019-01-08T15:17:48.286Z,53.60
2019-01-08T15:22:41.280Z,53.79
2019-01-08T15:27:35.353Z,53.91
2019-01-08T15:32:27.113Z,53.49
2019-01-08T15:37:17.464Z,54.06
2019-01-08T15:42:16.398Z,53.09
2019-01-08T15:47:06.774Z,53.84
2019-01-08T15:52:01.708Z,54.93
2019-01-08T15:56:54.076Z,54.64
2019-01-08T16:01:45.365Z,54.60
2019-01-08T16:06:36.184Z,54.26
2019-01-08T16:11:29.039Z,53.47
2019-01-08T16:16:19.382Z,54.11
2019-01-08T16:21:10.210Z,54.70
2019-01-08T16:26:03.325Z,55.44
2019-01-08T16:30:53.113Z,55.07
2019-01-08T16:35:50.228Z,56.21
2019-01-08T16:40:40.365Z,55.87
2019-01-08T16:45:34.072Z,55.70
2019-01-08T16:50:24.840Z,58.90
2019-01-08T16:55:18.736Z,56.56
2019-01-08T17:00:12.866Z,56.56
2019-01-08T17:05:03.427Z,56.31
2019-01-08T17:09:54.260Z,56.24
2019-01-08T17:14:45.835Z,56.05
2019-01-08T17:19:42.310Z,56.63
2019-01-08T17:24:32.868Z,56.76
2019-01-08T17:29:24.452Z,57.40
2019-01-08T17:34:16.305Z,57.01
2019-01-08T17:39:10.410Z,56.78
2019-01-08T17:44:02.825Z,57.07
2019-01-08T17:48:56.795Z,56.28
2019-01-08T17:53:47.525Z,55.85
2019-01-08T17:59:01.946Z,57.43
2019-01-08T18:04:01.362Z,57.12
2019-01-08T18:08:52.279Z,57.26
2019-01-08T18:13:52.578Z,58.05
2019-01-08T18:19:13.756Z,58.54
2019-01-08T18:24:08.978Z,57.96
2019-01-08T18:29:07.455Z,58.40
2019-01-08T18:34:38.566Z,57.65
2019-01-08T18:39:32.232Z,58.94
2019-01-08T18:44:32.312Z,58.59
2019-01-08T18:49:36.794Z,58.17
2019-01-08T18:54:36.075Z,58.90
2019-01-08T18:59:27.421Z,59.68
2019-01-08T19:04:18.381Z,59.74
2019-01-08T19:09:39.279Z,59.05
2019-01-08T19:14:53.706Z,59.36
2019-01-08T19:20:13.859Z,58.61
2019-01-08T19:31:06.369Z,59.29
2019-01-08T19:36:01.487Z,59.23
2019-01-08T19:40:53.259Z,59.52
2019-01-08T19:45:45.518Z,59.94
2019-01-08T19:50:43.874Z,60.71
2019-01-08T19:55:37.226Z,59.98
2019-01-08T20:00:28.606Z,59.80
2019-01-08T20:05:29.536Z,59.64
2019-01-08T20:10:22.714Z,60.09
2019-01-08T20:15:15.809Z,59.80
2019-01-08T20:20:06.616Z,59.52
2019-01-08T20:24:57.243Z,59.88
2019-01-08T20:29:47.749Z,60.83
2019-01-08T20:34:38.355Z,61.06
2019-01-08T20:39:28.362Z,61.32
2019-01-08T20:44:18.673Z,60.95
2019-01-08T20:49:08.807Z,59.73
2019-01-08T20:54:02.060Z,60.18
2019-01-08T20:58:52.214Z,61.54
2019-01-08T21:03:42.703Z,60.75
2019-01-08T21:08:34.016Z,61.17
2019-01-08T21:13:25.114Z,61.28
2019-01-08T21:18:15.900Z,61.40
2019-01-08T21:23:06.804Z,61.38
2019-01-08T21:27:58.395Z,61.09
2019-01-08T21:32:55.170Z,61.37
2019-01-08T21:38:03.412Z,61.54
2019-01-08T21:42:56.508Z,60.97
2019-01-08T21:47:51.597Z,61.22
2019-01-08T21:52:46.396Z,61.79
2019-01-08T21:57:37.536Z,61.60
2019-01-08T22:02:28.360Z,61.38
2019-01-08T22:07:30.340Z,61.22
2019-01-08T22:12:20.476Z,61.95
2019-01-08T22:17:10.187Z,61.52
2019-01-08T22:22:00.350Z,61.49
2019-01-08T22:26:50.470Z,60.36
2019-01-08T22:31:40.773Z,60.59
2019-01-08T22:36:30.737Z,61.73
2019-01-08T22:41:21.551Z,61.44
2019-01-08T22:46:11.871Z,60.80
2019-01-08T22:51:02.166Z,61.01
2019-01-08T22:55:56.073Z,60.61
2019-01-08T23:01:05.808Z,60.35
2019-01-08T23:05:56.141Z,60.79
2019-01-08T23:10:45.933Z,61.01
2019-01-08T23:15:35.257Z,61.03
2019-01-08T23:20:25.587Z,61.00
2019-01-08T23:25:15.901Z,61.84
2019-01-08T23:30:06.979Z,61.67
2019-01-08T23:34:59.759Z,62.00
2019-01-08T23:39:49.858Z,60.78
2019-01-08T23:44:40.447Z,61.92
2019-01-08T23:49:32.959Z,61.20
2019-01-08T23:54:27.211Z,61.59
2019-01-08T23:59:17.256Z,61.63
